DLH646 UACC-UAAA
Flight info
| Callsign | DLH646 |
|---|---|
| Flight time | 1h 18m |
| Altitude | 41000 |
| Route | BANOS W333 ETEDA ETEDA1Z |
| Aircraft | A343/H-SDE2E3FGHIJ4J5M1RWXY/LB1D1 |
Departure
| Time | 2026-04-26 13:18 |
|---|---|
| Airport | Nursultan Nazarbayev International Airport (UACC) |
Arrival
| Time | 2026-04-26 14:36 |
|---|---|
| Airport | Almaty International Airport (UAAA) |
| Time | Latitude | Longitude | Altitude | Speed | Heading |
|---|---|---|---|---|---|
| 2026-04-26 12:44 | 51.02777 | 71.46459 | 1168 ft | 0 kts | 315° |
| 2026-04-26 13:03 | 51.02763 | 71.46481 | 1163 ft | 4 kts | 318° |
| 2026-04-26 13:03 | 51.02742 | 71.46508 | 1163 ft | 4 kts | 325° |
| 2026-04-26 13:03 | 51.02719 | 71.46530 | 1163 ft | 4 kts | 338° |
| 2026-04-26 13:04 | 51.02694 | 71.46539 | 1163 ft | 4 kts | 14° |
| 2026-04-26 13:04 | 51.02684 | 71.46532 | 1163 ft | 0 kts | 41° |
| 2026-04-26 13:06 | 51.02686 | 71.46535 | 1163 ft | 2 kts | 41° |
| 2026-04-26 13:06 | 51.02744 | 71.46628 | 1163 ft | 18 kts | 45° |
| 2026-04-26 13:06 | 51.02823 | 71.46770 | 1164 ft | 14 kts | 70° |
| 2026-04-26 13:07 | 51.02778 | 71.46884 | 1166 ft | 19 kts | 131° |
| 2026-04-26 13:07 | 51.02801 | 71.47009 | 1164 ft | 22 kts | 43° |
| 2026-04-26 13:07 | 51.02925 | 71.47198 | 1165 ft | 25 kts | 44° |
| 2026-04-26 13:07 | 51.03054 | 71.47397 | 1164 ft | 26 kts | 44° |
| 2026-04-26 13:08 | 51.03184 | 71.47601 | 1164 ft | 26 kts | 46° |
| 2026-04-26 13:08 | 51.03305 | 71.47790 | 1163 ft | 23 kts | 45° |
| 2026-04-26 13:08 | 51.03388 | 71.47922 | 1164 ft | 8 kts | 44° |
| 2026-04-26 13:08 | 51.03425 | 71.47997 | 1164 ft | 8 kts | 72° |
| 2026-04-26 13:09 | 51.03425 | 71.48005 | 1164 ft | 0 kts | 86° |
| 2026-04-26 13:09 | 51.03426 | 71.48010 | 1166 ft | 0 kts | 83° |
| 2026-04-26 13:11 | 51.03426 | 71.48017 | 1166 ft | 1 kts | 82° |
| 2026-04-26 13:12 | 51.03427 | 71.48021 | 1166 ft | 1 kts | 83° |
| 2026-04-26 13:12 | 51.03429 | 71.48065 | 1154 ft | 5 kts | 87° |
| 2026-04-26 13:12 | 51.03430 | 71.48136 | 1168 ft | 7 kts | 88° |
| 2026-04-26 13:12 | 51.03430 | 71.48141 | 1168 ft | 0 kts | 88° |
| 2026-04-26 13:14 | 51.03430 | 71.48149 | 1168 ft | 3 kts | 88° |
| 2026-04-26 13:14 | 51.03426 | 71.48222 | 1166 ft | 14 kts | 107° |
| 2026-04-26 13:14 | 51.03349 | 71.48310 | 1165 ft | 12 kts | 195° |
| 2026-04-26 13:15 | 51.03320 | 71.48279 | 1165 ft | 0 kts | 222° |
| 2026-04-26 13:15 | 51.03317 | 71.48274 | 1165 ft | 0 kts | 222° |
| 2026-04-26 13:16 | 51.03311 | 71.48266 | 1165 ft | 2 kts | 223° |
| 2026-04-26 13:16 | 51.03222 | 71.48129 | 1166 ft | 45 kts | 224° |
| 2026-04-26 13:16 | 51.02833 | 71.47522 | 1168 ft | 109 kts | 225° |
| 2026-04-26 13:17 | 51.02210 | 71.46547 | 1169 ft | 157 kts | 224° |
| 2026-04-26 13:18 | 51.01751 | 71.45839 | 1442 ft | 162 kts | 226° |
| 2026-04-26 13:18 | 51.00092 | 71.43225 | 2831 ft | 180 kts | 230° |
| 2026-04-26 13:19 | 50.99133 | 71.41730 | 3211 ft | 205 kts | 230° |
| 2026-04-26 13:19 | 50.98051 | 71.40032 | 3610 ft | 230 kts | 229° |
| 2026-04-26 13:19 | 50.96879 | 71.38211 | 4420 ft | 239 kts | 230° |
| 2026-04-26 13:19 | 50.95672 | 71.36352 | 5362 ft | 244 kts | 229° |
| 2026-04-26 13:20 | 50.94291 | 71.34755 | 6275 ft | 257 kts | 212° |
| 2026-04-26 13:20 | 50.92480 | 71.34097 | 7162 ft | 276 kts | 184° |
| 2026-04-26 13:20 | 50.90595 | 71.34921 | 8077 ft | 291 kts | 153° |
| 2026-04-26 13:20 | 50.89022 | 71.36990 | 9039 ft | 298 kts | 137° |
| 2026-04-26 13:21 | 50.87574 | 71.39378 | 9972 ft | 301 kts | 136° |
| 2026-04-26 13:21 | 50.86613 | 71.40980 | 10441 ft | 308 kts | 137° |
| 2026-04-26 13:21 | 50.84471 | 71.44197 | 10952 ft | 332 kts | 143° |
| 2026-04-26 13:21 | 50.82671 | 71.46631 | 11331 ft | 350 kts | 143° |
| 2026-04-26 13:22 | 50.80762 | 71.49182 | 11704 ft | 366 kts | 143° |
| 2026-04-26 13:22 | 50.78790 | 71.51816 | 12247 ft | 375 kts | 144° |
| 2026-04-26 13:22 | 50.76781 | 71.54500 | 12923 ft | 381 kts | 144° |
| 2026-04-26 13:22 | 50.74745 | 71.57218 | 13656 ft | 385 kts | 144° |
| 2026-04-26 13:23 | 50.72684 | 71.59963 | 14342 ft | 389 kts | 145° |
| 2026-04-26 13:23 | 50.70606 | 71.62732 | 14992 ft | 394 kts | 145° |
| 2026-04-26 13:23 | 50.68501 | 71.65533 | 15652 ft | 398 kts | 145° |
| 2026-04-26 13:23 | 50.66368 | 71.68359 | 16332 ft | 402 kts | 146° |
| 2026-04-26 13:24 | 50.64238 | 71.71179 | 17014 ft | 406 kts | 146° |
| 2026-04-26 13:24 | 50.62062 | 71.74059 | 17716 ft | 411 kts | 146° |
| 2026-04-26 13:24 | 50.59863 | 71.76964 | 18364 ft | 414 kts | 147° |
| 2026-04-26 13:24 | 50.57651 | 71.79884 | 19005 ft | 417 kts | 147° |
| 2026-04-26 13:25 | 50.55417 | 71.82831 | 19621 ft | 420 kts | 147° |
| 2026-04-26 13:25 | 50.53175 | 71.85783 | 20227 ft | 422 kts | 147° |
| 2026-04-26 13:25 | 50.50908 | 71.88765 | 20833 ft | 425 kts | 147° |
| 2026-04-26 13:25 | 50.48634 | 71.91752 | 21439 ft | 428 kts | 147° |
| 2026-04-26 13:26 | 50.46346 | 71.94753 | 22047 ft | 430 kts | 147° |
| 2026-04-26 13:26 | 50.44036 | 71.97779 | 22611 ft | 433 kts | 147° |
| 2026-04-26 13:26 | 50.42501 | 71.99787 | 22992 ft | 435 kts | 148° |
| 2026-04-26 13:26 | 50.40172 | 72.02833 | 23550 ft | 437 kts | 148° |
| 2026-04-26 13:27 | 50.37835 | 72.05886 | 24088 ft | 438 kts | 148° |
| 2026-04-26 13:27 | 50.35488 | 72.08945 | 24537 ft | 441 kts | 148° |
| 2026-04-26 13:27 | 50.33121 | 72.12025 | 24961 ft | 444 kts | 148° |
| 2026-04-26 13:27 | 50.30734 | 72.15128 | 25391 ft | 447 kts | 148° |
| 2026-04-26 13:28 | 50.28337 | 72.18246 | 25840 ft | 450 kts | 148° |
| 2026-04-26 13:28 | 50.26022 | 72.21612 | 26268 ft | 460 kts | 141° |
| 2026-04-26 13:28 | 50.24005 | 72.25595 | 26697 ft | 474 kts | 130° |
| 2026-04-26 13:28 | 50.22432 | 72.30199 | 27112 ft | 487 kts | 120° |
| 2026-04-26 13:29 | 50.21407 | 72.35218 | 27591 ft | 499 kts | 109° |
| 2026-04-26 13:29 | 50.20746 | 72.40627 | 27981 ft | 505 kts | 105° |
| 2026-04-26 13:29 | 50.20242 | 72.46025 | 28337 ft | 510 kts | 103° |
| 2026-04-26 13:29 | 50.19794 | 72.51530 | 28696 ft | 513 kts | 103° |
| 2026-04-26 13:30 | 50.19186 | 72.56999 | 29044 ft | 509 kts | 110° |
| 2026-04-26 13:30 | 50.18074 | 72.62198 | 29394 ft | 502 kts | 121° |
| 2026-04-26 13:30 | 50.16435 | 72.66943 | 29736 ft | 492 kts | 131° |
| 2026-04-26 13:30 | 50.14323 | 72.71078 | 30074 ft | 483 kts | 142° |
| 2026-04-26 13:31 | 50.11969 | 72.74814 | 30368 ft | 483 kts | 144° |
| 2026-04-26 13:31 | 50.09543 | 72.78418 | 30660 ft | 483 kts | 145° |
| 2026-04-26 13:31 | 50.07086 | 72.81966 | 31054 ft | 481 kts | 145° |
| 2026-04-26 13:31 | 50.04621 | 72.85500 | 31427 ft | 480 kts | 145° |
| 2026-04-26 13:32 | 50.02182 | 72.89004 | 31848 ft | 478 kts | 145° |
| 2026-04-26 13:32 | 49.99746 | 72.92523 | 32335 ft | 474 kts | 144° |
| 2026-04-26 13:32 | 49.97351 | 72.96000 | 32849 ft | 471 kts | 144° |
| 2026-04-26 13:32 | 49.94958 | 72.99479 | 33208 ft | 471 kts | 144° |
| 2026-04-26 13:33 | 49.92578 | 73.02937 | 33531 ft | 471 kts | 144° |
| 2026-04-26 13:33 | 49.90174 | 73.06428 | 33885 ft | 471 kts | 144° |
| 2026-04-26 13:33 | 49.87784 | 73.09895 | 34200 ft | 470 kts | 144° |
| 2026-04-26 13:33 | 49.85397 | 73.13353 | 34390 ft | 472 kts | 144° |
| 2026-04-26 13:34 | 49.82985 | 73.16840 | 34555 ft | 474 kts | 144° |
| 2026-04-26 13:34 | 49.80600 | 73.20282 | 34812 ft | 474 kts | 144° |
| 2026-04-26 13:34 | 49.78192 | 73.23756 | 35078 ft | 474 kts | 144° |
| 2026-04-26 13:34 | 49.76557 | 73.26112 | 35256 ft | 475 kts | 144° |
| 2026-04-26 13:35 | 49.73353 | 73.30724 | 35564 ft | 475 kts | 144° |
| 2026-04-26 13:35 | 49.70896 | 73.34126 | 35811 ft | 472 kts | 148° |
| 2026-04-26 13:35 | 49.68237 | 73.37047 | 36029 ft | 465 kts | 156° |
| 2026-04-26 13:35 | 49.65385 | 73.39333 | 36210 ft | 459 kts | 163° |
| 2026-04-26 13:36 | 49.62457 | 73.41279 | 36421 ft | 458 kts | 164° |
| 2026-04-26 13:36 | 49.59499 | 73.43104 | 36639 ft | 458 kts | 165° |
| 2026-04-26 13:36 | 49.56526 | 73.44872 | 36855 ft | 458 kts | 165° |
| 2026-04-26 13:36 | 49.53550 | 73.46622 | 37069 ft | 459 kts | 165° |
| 2026-04-26 13:37 | 49.50561 | 73.48381 | 37287 ft | 459 kts | 165° |
| 2026-04-26 13:37 | 49.47574 | 73.50150 | 37498 ft | 460 kts | 165° |
| 2026-04-26 13:37 | 49.44581 | 73.51932 | 37699 ft | 461 kts | 165° |
| 2026-04-26 13:37 | 49.41630 | 73.53696 | 37931 ft | 461 kts | 165° |
| 2026-04-26 13:38 | 49.38636 | 73.55488 | 38155 ft | 461 kts | 165° |
| 2026-04-26 13:38 | 49.35644 | 73.57278 | 38362 ft | 462 kts | 165° |
| 2026-04-26 13:38 | 49.32644 | 73.59071 | 38556 ft | 463 kts | 164° |
| 2026-04-26 13:38 | 49.29640 | 73.60863 | 38763 ft | 463 kts | 164° |
| 2026-04-26 13:39 | 49.26634 | 73.62655 | 38930 ft | 463 kts | 164° |
| 2026-04-26 13:39 | 49.23623 | 73.64446 | 39046 ft | 465 kts | 164° |
| 2026-04-26 13:39 | 49.20607 | 73.66236 | 39080 ft | 466 kts | 164° |
| 2026-04-26 13:40 | 49.14571 | 73.69817 | 39083 ft | 464 kts | 164° |
| 2026-04-26 13:40 | 49.08592 | 73.73353 | 39081 ft | 464 kts | 164° |
| 2026-04-26 13:41 | 49.02575 | 73.76901 | 39065 ft | 463 kts | 165° |
| 2026-04-26 13:41 | 48.96577 | 73.80434 | 39075 ft | 461 kts | 165° |
| 2026-04-26 13:42 | 48.90593 | 73.83933 | 39072 ft | 461 kts | 165° |
| 2026-04-26 13:42 | 48.84609 | 73.87411 | 39072 ft | 461 kts | 165° |
| 2026-04-26 13:43 | 48.78620 | 73.90888 | 39067 ft | 459 kts | 165° |
| 2026-04-26 13:43 | 48.72663 | 73.94341 | 39059 ft | 458 kts | 165° |
| 2026-04-26 13:44 | 48.66700 | 73.97788 | 39051 ft | 458 kts | 165° |
| 2026-04-26 13:44 | 48.60739 | 74.01225 | 39043 ft | 458 kts | 166° |
| 2026-04-26 13:45 | 48.54776 | 74.04656 | 39038 ft | 458 kts | 166° |
| 2026-04-26 13:45 | 48.48819 | 74.08075 | 39032 ft | 458 kts | 166° |
| 2026-04-26 13:46 | 48.42856 | 74.11488 | 39029 ft | 458 kts | 166° |
| 2026-04-26 13:46 | 48.36924 | 74.14873 | 39021 ft | 460 kts | 166° |
| 2026-04-26 13:47 | 48.30924 | 74.18289 | 39009 ft | 461 kts | 166° |
| 2026-04-26 13:47 | 48.24921 | 74.21700 | 39001 ft | 461 kts | 166° |
| 2026-04-26 13:48 | 48.18915 | 74.25105 | 39003 ft | 461 kts | 166° |
| 2026-04-26 13:48 | 48.12906 | 74.28502 | 38994 ft | 461 kts | 166° |
| 2026-04-26 13:49 | 48.06909 | 74.31923 | 38993 ft | 461 kts | 166° |
| 2026-04-26 13:49 | 48.00955 | 74.35326 | 38960 ft | 461 kts | 166° |
| 2026-04-26 13:50 | 47.94937 | 74.38753 | 38982 ft | 463 kts | 166° |
| 2026-04-26 13:50 | 47.88912 | 74.42175 | 38971 ft | 463 kts | 166° |
| 2026-04-26 13:51 | 47.82885 | 74.45590 | 38963 ft | 463 kts | 166° |
| 2026-04-26 13:51 | 47.76851 | 74.48999 | 38957 ft | 463 kts | 166° |
| 2026-04-26 13:52 | 47.70831 | 74.52394 | 38957 ft | 463 kts | 166° |
| 2026-04-26 13:52 | 47.64804 | 74.55783 | 38949 ft | 463 kts | 166° |
| 2026-04-26 13:53 | 47.58777 | 74.59164 | 38934 ft | 463 kts | 166° |
| 2026-04-26 13:53 | 47.52771 | 74.62528 | 38942 ft | 461 kts | 166° |
| 2026-04-26 13:54 | 47.46779 | 74.65899 | 38942 ft | 460 kts | 166° |
| 2026-04-26 13:54 | 47.40829 | 74.69240 | 38932 ft | 461 kts | 166° |
| 2026-04-26 13:55 | 47.32816 | 74.73726 | 38948 ft | 460 kts | 166° |
| 2026-04-26 13:56 | 47.22856 | 74.79282 | 38937 ft | 460 kts | 166° |
| 2026-04-26 13:56 | 47.16867 | 74.82611 | 38935 ft | 461 kts | 166° |
| 2026-04-26 13:57 | 47.10873 | 74.85935 | 38940 ft | 461 kts | 166° |
| 2026-04-26 13:57 | 47.04861 | 74.89260 | 38938 ft | 461 kts | 166° |
| 2026-04-26 13:58 | 46.98862 | 74.92572 | 38931 ft | 461 kts | 166° |
| 2026-04-26 13:58 | 46.92853 | 74.95881 | 38946 ft | 461 kts | 166° |
| 2026-04-26 13:59 | 46.86882 | 74.99173 | 38949 ft | 462 kts | 165° |
| 2026-04-26 13:59 | 46.80952 | 75.02859 | 38942 ft | 464 kts | 162° |
| 2026-04-26 14:00 | 46.69144 | 75.10528 | 38959 ft | 464 kts | 162° |
| 2026-04-26 14:01 | 46.63225 | 75.14279 | 38956 ft | 464 kts | 162° |
| 2026-04-26 14:01 | 46.57308 | 75.18002 | 38955 ft | 463 kts | 162° |
| 2026-04-26 14:02 | 46.51390 | 75.21716 | 38956 ft | 463 kts | 163° |
| 2026-04-26 14:02 | 46.45474 | 75.25421 | 38955 ft | 463 kts | 163° |
| 2026-04-26 14:03 | 46.39562 | 75.29116 | 38947 ft | 463 kts | 163° |
| 2026-04-26 14:03 | 46.33638 | 75.32811 | 38950 ft | 464 kts | 163° |
| 2026-04-26 14:04 | 46.27743 | 75.36479 | 38953 ft | 464 kts | 163° |
| 2026-04-26 14:04 | 46.21814 | 75.40161 | 38955 ft | 464 kts | 163° |
| 2026-04-26 14:05 | 46.15885 | 75.43860 | 38955 ft | 464 kts | 163° |
| 2026-04-26 14:05 | 46.09961 | 75.47554 | 38952 ft | 464 kts | 163° |
| 2026-04-26 14:06 | 46.04036 | 75.51239 | 38940 ft | 464 kts | 163° |
| 2026-04-26 14:06 | 45.98098 | 75.54922 | 38958 ft | 464 kts | 163° |
| 2026-04-26 14:07 | 45.92154 | 75.58601 | 38951 ft | 464 kts | 163° |
| 2026-04-26 14:07 | 45.86256 | 75.62242 | 38952 ft | 464 kts | 163° |
| 2026-04-26 14:08 | 45.80312 | 75.65904 | 38955 ft | 464 kts | 163° |
| 2026-04-26 14:08 | 45.74368 | 75.69559 | 38945 ft | 464 kts | 163° |
| 2026-04-26 14:09 | 45.68442 | 75.73190 | 38950 ft | 464 kts | 163° |
| 2026-04-26 14:09 | 45.62538 | 75.76805 | 38951 ft | 463 kts | 162° |
| 2026-04-26 14:10 | 45.56616 | 75.80422 | 38949 ft | 463 kts | 162° |
| 2026-04-26 14:10 | 45.50701 | 75.84026 | 38950 ft | 463 kts | 162° |
| 2026-04-26 14:11 | 45.41819 | 75.89423 | 38951 ft | 462 kts | 162° |
| 2026-04-26 14:11 | 45.35904 | 75.93006 | 38949 ft | 461 kts | 162° |
| 2026-04-26 14:12 | 45.29989 | 75.96582 | 38931 ft | 461 kts | 162° |
| 2026-04-26 14:12 | 45.24076 | 76.00147 | 38946 ft | 463 kts | 162° |
| 2026-04-26 14:13 | 45.15911 | 76.05059 | 38936 ft | 463 kts | 162° |
| 2026-04-26 14:13 | 45.12942 | 76.06841 | 38735 ft | 462 kts | 162° |
| 2026-04-26 14:14 | 45.09979 | 76.08618 | 38465 ft | 461 kts | 162° |
| 2026-04-26 14:14 | 45.07065 | 76.10362 | 38183 ft | 461 kts | 162° |
| 2026-04-26 14:14 | 45.04106 | 76.12132 | 37907 ft | 461 kts | 162° |
| 2026-04-26 14:14 | 45.01160 | 76.13893 | 37436 ft | 458 kts | 162° |
| 2026-04-26 14:15 | 44.98227 | 76.15644 | 36881 ft | 458 kts | 162° |
| 2026-04-26 14:15 | 44.95287 | 76.17396 | 36299 ft | 459 kts | 162° |
| 2026-04-26 14:15 | 44.92341 | 76.19149 | 35677 ft | 460 kts | 162° |
| 2026-04-26 14:15 | 44.89389 | 76.20904 | 35045 ft | 462 kts | 162° |
| 2026-04-26 14:16 | 44.86411 | 76.22672 | 34332 ft | 465 kts | 162° |
| 2026-04-26 14:16 | 44.84428 | 76.23848 | 33827 ft | 468 kts | 162° |
| 2026-04-26 14:16 | 44.81411 | 76.25636 | 32961 ft | 472 kts | 162° |
| 2026-04-26 14:16 | 44.77366 | 76.28031 | 31847 ft | 477 kts | 161° |
| 2026-04-26 14:17 | 44.74290 | 76.29850 | 30937 ft | 481 kts | 161° |
| 2026-04-26 14:17 | 44.72202 | 76.31084 | 30331 ft | 483 kts | 161° |
| 2026-04-26 14:17 | 44.69097 | 76.32918 | 29561 ft | 482 kts | 161° |
| 2026-04-26 14:17 | 44.66017 | 76.34738 | 28961 ft | 477 kts | 161° |
| 2026-04-26 14:18 | 44.63015 | 76.36508 | 28354 ft | 471 kts | 161° |
| 2026-04-26 14:18 | 44.60011 | 76.38277 | 27764 ft | 466 kts | 161° |
| 2026-04-26 14:18 | 44.57036 | 76.40026 | 27167 ft | 461 kts | 161° |
| 2026-04-26 14:18 | 44.54089 | 76.41756 | 26579 ft | 457 kts | 160° |
| 2026-04-26 14:19 | 44.51165 | 76.43470 | 25993 ft | 453 kts | 160° |
| 2026-04-26 14:19 | 44.48268 | 76.45167 | 25405 ft | 449 kts | 160° |
| 2026-04-26 14:19 | 44.45396 | 76.46847 | 24815 ft | 446 kts | 160° |
| 2026-04-26 14:19 | 44.42540 | 76.48516 | 24228 ft | 443 kts | 160° |
| 2026-04-26 14:20 | 44.39699 | 76.50174 | 23624 ft | 441 kts | 160° |
| 2026-04-26 14:20 | 44.36877 | 76.51820 | 22970 ft | 438 kts | 160° |
| 2026-04-26 14:20 | 44.34122 | 76.53595 | 22364 ft | 436 kts | 153° |
| 2026-04-26 14:20 | 44.31615 | 76.55950 | 21770 ft | 434 kts | 146° |
| 2026-04-26 14:21 | 44.29212 | 76.58473 | 21190 ft | 430 kts | 145° |
| 2026-04-26 14:21 | 44.26838 | 76.60989 | 20605 ft | 426 kts | 145° |
| 2026-04-26 14:21 | 44.24488 | 76.63472 | 20024 ft | 422 kts | 145° |
| 2026-04-26 14:21 | 44.22150 | 76.65931 | 19461 ft | 419 kts | 145° |
| 2026-04-26 14:22 | 44.19831 | 76.68365 | 18893 ft | 416 kts | 145° |
| 2026-04-26 14:22 | 44.17523 | 76.70783 | 18333 ft | 413 kts | 145° |
| 2026-04-26 14:22 | 44.15238 | 76.73173 | 17711 ft | 409 kts | 145° |
| 2026-04-26 14:22 | 44.12974 | 76.75538 | 17153 ft | 405 kts | 145° |
| 2026-04-26 14:23 | 44.10725 | 76.77885 | 16596 ft | 401 kts | 145° |
| 2026-04-26 14:23 | 44.08532 | 76.80171 | 16064 ft | 397 kts | 145° |
| 2026-04-26 14:23 | 44.06333 | 76.82460 | 15525 ft | 393 kts | 145° |
| 2026-04-26 14:23 | 44.04149 | 76.84732 | 14996 ft | 391 kts | 145° |
| 2026-04-26 14:24 | 44.01977 | 76.86990 | 14444 ft | 388 kts | 146° |
| 2026-04-26 14:24 | 43.99820 | 76.89228 | 14021 ft | 383 kts | 146° |
| 2026-04-26 14:24 | 43.97728 | 76.91402 | 13886 ft | 368 kts | 146° |
| 2026-04-26 14:24 | 43.95712 | 76.93495 | 13767 ft | 355 kts | 146° |
| 2026-04-26 14:25 | 43.93755 | 76.95523 | 13495 ft | 348 kts | 146° |
| 2026-04-26 14:25 | 43.91816 | 76.97526 | 13033 ft | 348 kts | 146° |
| 2026-04-26 14:25 | 43.89881 | 76.99526 | 12612 ft | 346 kts | 146° |
| 2026-04-26 14:25 | 43.87953 | 77.01514 | 12232 ft | 346 kts | 146° |
| 2026-04-26 14:26 | 43.86023 | 77.03500 | 11852 ft | 345 kts | 146° |
| 2026-04-26 14:26 | 43.84093 | 77.05482 | 11481 ft | 344 kts | 146° |
| 2026-04-26 14:26 | 43.82207 | 77.07418 | 11118 ft | 338 kts | 145° |
| 2026-04-26 14:26 | 43.80371 | 77.09313 | 10747 ft | 319 kts | 145° |
| 2026-04-26 14:27 | 43.78630 | 77.11109 | 10386 ft | 308 kts | 145° |
| 2026-04-26 14:27 | 43.76916 | 77.12871 | 10098 ft | 305 kts | 145° |
| 2026-04-26 14:27 | 43.75225 | 77.14608 | 9968 ft | 301 kts | 145° |
| 2026-04-26 14:27 | 43.73536 | 77.16342 | 9881 ft | 304 kts | 145° |
| 2026-04-26 14:28 | 43.71841 | 77.18081 | 9713 ft | 300 kts | 145° |
| 2026-04-26 14:28 | 43.70165 | 77.19800 | 9429 ft | 300 kts | 145° |
| 2026-04-26 14:28 | 43.68492 | 77.21515 | 9099 ft | 300 kts | 145° |
| 2026-04-26 14:28 | 43.66824 | 77.23223 | 8767 ft | 298 kts | 145° |
| 2026-04-26 14:29 | 43.65182 | 77.24905 | 8498 ft | 294 kts | 145° |
| 2026-04-26 14:29 | 43.63550 | 77.26574 | 8280 ft | 289 kts | 145° |
| 2026-04-26 14:29 | 43.61937 | 77.28224 | 8144 ft | 280 kts | 145° |
| 2026-04-26 14:29 | 43.60408 | 77.29787 | 7979 ft | 274 kts | 145° |
| 2026-04-26 14:30 | 43.58890 | 77.31337 | 7789 ft | 270 kts | 145° |
| 2026-04-26 14:30 | 43.57353 | 77.32810 | 7537 ft | 268 kts | 147° |
| 2026-04-26 14:30 | 43.55811 | 77.34242 | 7284 ft | 266 kts | 147° |
| 2026-04-26 14:30 | 43.54227 | 77.35523 | 6994 ft | 263 kts | 160° |
| 2026-04-26 14:31 | 43.52452 | 77.35842 | 6731 ft | 258 kts | 192° |
| 2026-04-26 14:31 | 43.50871 | 77.34844 | 6616 ft | 246 kts | 219° |
| 2026-04-26 14:31 | 43.49688 | 77.33241 | 6606 ft | 235 kts | 233° |
| 2026-04-26 14:31 | 43.48746 | 77.31406 | 6495 ft | 233 kts | 238° |
| 2026-04-26 14:32 | 43.47851 | 77.29538 | 6216 ft | 234 kts | 237° |
| 2026-04-26 14:32 | 43.46930 | 77.27680 | 5879 ft | 235 kts | 236° |
| 2026-04-26 14:32 | 43.46019 | 77.25844 | 5540 ft | 228 kts | 236° |
| 2026-04-26 14:32 | 43.45146 | 77.24066 | 5221 ft | 219 kts | 236° |
| 2026-04-26 14:33 | 43.44306 | 77.22360 | 4946 ft | 212 kts | 236° |
| 2026-04-26 14:33 | 43.43510 | 77.20747 | 4729 ft | 203 kts | 236° |
| 2026-04-26 14:33 | 43.42725 | 77.19155 | 4441 ft | 198 kts | 236° |
| 2026-04-26 14:33 | 43.41973 | 77.17627 | 4184 ft | 187 kts | 234° |
| 2026-04-26 14:34 | 43.41268 | 77.16197 | 3941 ft | 174 kts | 234° |
| 2026-04-26 14:34 | 43.40618 | 77.14881 | 3739 ft | 158 kts | 234° |
| 2026-04-26 14:34 | 43.40029 | 77.13686 | 3542 ft | 144 kts | 234° |
| 2026-04-26 14:34 | 43.39484 | 77.12580 | 3335 ft | 138 kts | 234° |
| 2026-04-26 14:35 | 43.38936 | 77.11478 | 3087 ft | 142 kts | 234° |
| 2026-04-26 14:35 | 43.38378 | 77.10328 | 2910 ft | 147 kts | 235° |
| 2026-04-26 14:35 | 43.37798 | 77.09150 | 2748 ft | 150 kts | 235° |
| 2026-04-26 14:35 | 43.37212 | 77.07968 | 2539 ft | 149 kts | 234° |
| 2026-04-26 14:36 | 43.36629 | 77.06815 | 2373 ft | 146 kts | 235° |
| 2026-04-26 14:36 | 43.36082 | 77.05696 | 2240 ft | 133 kts | 236° |
| 2026-04-26 14:36 | 43.35662 | 77.04847 | 2227 ft | 82 kts | 236° |
| 2026-04-26 14:36 | 43.35429 | 77.04378 | 2224 ft | 48 kts | 236° |
| 2026-04-26 14:37 | 43.35309 | 77.04134 | 2227 ft | 45 kts | 236° |
| 2026-04-26 14:37 | 43.35173 | 77.03862 | 2231 ft | 43 kts | 235° |
| 2026-04-26 14:37 | 43.35010 | 77.03537 | 2229 ft | 41 kts | 235° |
| 2026-04-26 14:37 | 43.34856 | 77.03219 | 2227 ft | 39 kts | 237° |
| 2026-04-26 14:38 | 43.34784 | 77.02874 | 2227 ft | 37 kts | 266° |
| 2026-04-26 14:38 | 43.34777 | 77.02531 | 2234 ft | 25 kts | 270° |
| 2026-04-26 14:38 | 43.34780 | 77.02498 | 2234 ft | 1 kts | 283° |
| 2026-04-26 14:38 | 43.34789 | 77.02483 | 2228 ft | 6 kts | 309° |
| 2026-04-26 14:39 | 43.34862 | 77.02398 | 2228 ft | 13 kts | 319° |
| 2026-04-26 14:39 | 43.34941 | 77.02301 | 2227 ft | 17 kts | 318° |
| 2026-04-26 14:39 | 43.35018 | 77.02177 | 2228 ft | 17 kts | 282° |
| 2026-04-26 14:39 | 43.35024 | 77.02008 | 2233 ft | 18 kts | 272° |
| 2026-04-26 14:40 | 43.35031 | 77.01829 | 2228 ft | 19 kts | 273° |
| 2026-04-26 14:40 | 43.35037 | 77.01680 | 2227 ft | 7 kts | 276° |
| 2026-04-26 14:40 | 43.35062 | 77.01599 | 2229 ft | 12 kts | 294° |
| 2026-04-26 14:40 | 43.35076 | 77.01485 | 2233 ft | 13 kts | 264° |
| 2026-04-26 14:41 | 43.35042 | 77.01410 | 2231 ft | 0 kts | 213° |
| 2026-04-26 14:41 | 43.35035 | 77.01404 | 2229 ft | 0 kts | 212° |
| 2026-04-26 14:41 | 43.35029 | 77.01399 | 2231 ft | 2 kts | 212° |
| 2026-04-26 14:41 | 43.35010 | 77.01378 | 2231 ft | 4 kts | 229° |
| 2026-04-26 14:42 | 43.34998 | 77.01341 | 2226 ft | 5 kts | 245° |
| 2026-04-26 14:42 | 43.34984 | 77.01299 | 2229 ft | 1 kts | 245° |
| 2026-04-26 14:42 | 43.34983 | 77.01295 | 2229 ft | 0 kts | 246° |
| 2026-04-26 14:43 | 43.34961 | 77.01296 | 2233 ft | 0 kts | 246° |
| 2026-04-26 14:43 | 43.34943 | 77.01326 | 2233 ft | 0 kts | 246° |